Time;durP1;ratioP1;P1;durP2;ratioP2;P2;SDS_P1;SDS_P2;PMS_P1;PMS_P2;Temp;Humidity;BMP_temperature;BMP_pressure;BME280_temperature;BME280_humidity;BME280_pressure;Samples;Min_cycle;Max_cycle;Signal;HPM_P1;HPM_P2
2021/07/17 00:02:03;;;;;;;12.98;4.85;;;;;;;26.24;100.00;100492.38;5004693;28;20034;-70
2021/07/17 00:04:49;;;;;;;9.85;4.25;;;;;;;26.33;100.00;100486.22;5016500;28;20018;-70
2021/07/17 00:07:35;;;;;;;8.40;4.65;;;;;;;26.21;100.00;100492.66;5017430;28;20033;-70
2021/07/17 00:10:23;;;;;;;10.27;4.50;;;;;;;26.10;100.00;100492.72;5016528;28;20083;-70
2021/07/17 00:13:09;;;;;;;9.68;4.78;;;;;;;26.22;100.00;100490.81;5016072;28;20026;-70
2021/07/17 00:15:56;;;;;;;11.50;4.57;;;;;;;26.31;100.00;100481.97;5016519;28;20092;-70
2021/07/17 00:18:42;;;;;;;14.73;5.20;;;;;;;25.70;100.00;100483.59;5016529;28;20042;-70
2021/07/17 00:21:28;;;;;;;11.20;4.78;;;;;;;26.04;100.00;100482.50;5016247;28;20117;-70
2021/07/17 00:24:14;;;;;;;8.93;4.60;;;;;;;25.47;100.00;100483.81;5017533;28;20064;-70
2021/07/17 00:26:59;;;;;;;9.13;4.85;;;;;;;25.34;100.00;100483.97;5016554;28;20026;-70
2021/07/17 00:29:45;;;;;;;9.55;4.25;;;;;;;25.52;100.00;100485.13;5016565;28;20428;-70
2021/07/17 00:32:31;;;;;;;11.60;5.20;;;;;;;25.59;100.00;100480.13;5017071;28;20050;-70
2021/07/17 00:35:17;;;;;;;11.52;4.32;;;;;;;25.64;100.00;100485.94;5016116;28;20088;-70
2021/07/17 00:38:04;;;;;;;13.32;4.57;;;;;;;25.29;100.00;100485.31;5016361;28;20042;-70
2021/07/17 00:40:50;;;;;;;10.27;4.97;;;;;;;25.18;100.00;100478.09;5015409;28;20033;-70
2021/07/17 00:43:35;;;;;;;9.23;4.97;;;;;;;25.16;100.00;100481.91;5015991;28;20022;-70
2021/07/17 00:46:21;;;;;;;11.95;5.10;;;;;;;25.17;100.00;100486.28;5016372;28;20376;-70
2021/07/17 00:49:09;;;;;;;13.98;5.10;;;;;;;25.17;100.00;100487.13;5016676;28;20042;-70
2021/07/17 00:51:55;;;;;;;9.73;5.32;;;;;;;25.27;100.00;100480.03;5015861;28;20030;-70
2021/07/17 00:54:41;;;;;;;13.73;5.65;;;;;;;25.18;100.00;100474.56;5015365;28;20167;-70
2021/07/17 00:57:31;;;;;;;18.65;5.65;;;;;;;25.32;100.00;100471.66;5015335;28;20370;-70
2021/07/17 01:00:18;;;;;;;12.93;6.10;;;;;;;24.99;100.00;100472.53;5016412;28;20105;-71
2021/07/17 01:03:06;;;;;;;15.20;6.18;;;;;;;24.99;100.00;100464.47;5016004;28;20027;-70
2021/07/17 01:05:52;;;;;;;18.15;6.20;;;;;;;25.03;100.00;100470.47;5015696;28;20040;-70
2021/07/17 01:08:38;;;;;;;17.25;6.28;;;;;;;24.74;100.00;100466.56;5016071;28;20026;-70
2021/07/17 01:11:24;;;;;;;14.77;6.47;;;;;;;25.17;100.00;100465.69;5015403;28;20026;-71
2021/07/17 01:14:09;;;;;;;11.07;5.82;;;;;;;25.35;100.00;100460.69;5015727;28;20026;-71
2021/07/17 01:16:55;;;;;;;12.23;5.68;;;;;;;25.37;100.00;100459.56;5015241;28;20026;-70
2021/07/17 01:19:41;;;;;;;16.13;5.82;;;;;;;25.48;100.00;100464.06;5014827;28;20544;-71
2021/07/17 01:22:27;;;;;;;14.02;5.35;;;;;;;25.37;100.00;100464.06;5015233;28;20052;-71
2021/07/17 01:25:17;;;;;;;13.13;5.25;;;;;;;25.58;100.00;100459.59;5015770;28;20041;-70
2021/07/17 01:28:03;;;;;;;13.38;5.78;;;;;;;25.30;100.00;100462.88;5014551;28;20354;-70
2021/07/17 01:30:49;;;;;;;9.65;5.25;;;;;;;25.27;100.00;100463.09;5002474;28;20034;-70
2021/07/17 01:33:36;;;;;;;13.95;5.72;;;;;;;25.03;100.00;100457.06;5014319;28;20026;-70
2021/07/17 01:36:22;;;;;;;11.55;5.60;;;;;;;25.15;100.00;100462.25;5002030;28;20125;-71
2021/07/17 01:39:08;;;;;;;15.32;5.60;;;;;;;25.08;100.00;100462.91;5014603;28;20061;-71
2021/07/17 01:41:54;;;;;;;10.40;5.25;;;;;;;24.92;100.00;100455.25;5002793;28;20625;-71
2021/07/17 01:44:43;;;;;;;11.02;5.57;;;;;;;24.99;100.00;100455.59;5014752;28;20335;-71
2021/07/17 01:47:29;;;;;;;16.15;5.80;;;;;;;24.51;100.00;100456.81;5014850;28;20025;-71
2021/07/17 01:50:15;;;;;;;16.23;6.22;;;;;;;24.72;100.00;100447.97;5015967;28;20040;-71
2021/07/17 01:53:01;;;;;;;15.30;5.95;;;;;;;24.68;100.00;100443.81;5014969;28;20064;-71
2021/07/17 01:55:47;;;;;;;14.80;6.00;;;;;;;24.99;100.00;100445.72;5015945;28;20034;-71
2021/07/17 01:58:33;;;;;;;10.85;5.28;;;;;;;24.84;100.00;100441.63;5014483;28;20053;-71
2021/07/17 02:01:19;;;;;;;9.65;5.80;;;;;;;24.79;100.00;100442.97;5002761;28;20041;-71
2021/07/17 02:04:04;;;;;;;14.02;5.55;;;;;;;24.43;100.00;100441.31;5014798;28;20033;-71
2021/07/17 02:06:50;;;;;;;11.15;5.85;;;;;;;24.63;100.00;100445.16;5001037;28;20033;-71
2021/07/17 02:09:36;;;;;;;10.55;5.65;;;;;;;24.42;100.00;100441.44;5014300;28;20025;-71
2021/07/17 02:12:22;;;;;;;12.45;5.85;;;;;;;24.50;100.00;100433.66;5015615;28;20052;-71
2021/07/17 02:15:08;;;;;;;13.23;6.10;;;;;;;24.44;100.00;100437.69;5014186;28;20037;-71
2021/07/17 02:17:55;;;;;;;11.63;6.00;;;;;;;24.11;100.00;100434.94;5015509;28;20446;-71
2021/07/17 02:20:41;;;;;;;13.95;5.93;;;;;;;23.89;100.00;100428.66;5014346;28;20472;-71
2021/07/17 02:23:27;;;;;;;20.63;6.40;;;;;;;24.45;100.00;100438.53;5014774;28;20037;-69
2021/07/17 02:26:13;;;;;;;11.35;6.18;;;;;;;24.58;100.00;100426.72;5014791;28;20406;-70
2021/07/17 02:28:59;;;;;;;11.48;6.30;;;;;;;24.32;100.00;100432.44;5014479;28;20026;-70
2021/07/17 02:31:45;;;;;;;9.70;5.85;;;;;;;24.40;100.00;100430.88;5014993;28;20018;-70
2021/07/17 02:34:31;;;;;;;19.50;5.90;;;;;;;24.45;100.00;100427.81;5013881;28;20049;-70
2021/07/17 02:37:17;;;;;;;14.40;6.10;;;;;;;24.27;100.00;100430.09;5015134;28;20034;-70
2021/07/17 02:40:05;;;;;;;11.18;5.88;;;;;;;23.93;100.00;100432.84;5013948;28;20034;-70
2021/07/17 02:42:51;;;;;;;9.73;5.78;;;;;;;23.79;100.00;100427.66;5014157;28;20030;-70
2021/07/17 02:45:37;;;;;;;10.45;5.53;;;;;;;23.93;100.00;100427.50;5015582;28;20468;-69
2021/07/17 02:48:22;;;;;;;15.70;5.97;;;;;;;23.89;100.00;100434.00;5017811;28;20026;-70
2021/07/17 02:51:08;;;;;;;9.82;6.03;;;;;;;23.84;100.00;100430.84;5017659;28;20033;-70
2021/07/17 02:53:54;;;;;;;14.30;6.38;;;;;;;23.85;100.00;100435.22;5018702;28;20438;-70
2021/07/17 02:56:40;;;;;;;16.83;6.22;;;;;;;23.94;100.00;100432.72;5018865;28;20143;-70
2021/07/17 02:59:25;;;;;;;15.77;6.10;;;;;;;23.96;100.00;100451.34;5017425;28;20064;-70
2021/07/17 03:02:11;;;;;;;11.73;6.20;;;;;;;24.41;100.00;100451.31;5018404;28;20025;-70
2021/07/17 03:04:57;;;;;;;11.25;6.18;;;;;;;24.14;100.00;100439.25;5018277;28;20026;-71
2021/07/17 03:07:43;;;;;;;13.10;5.60;;;;;;;24.30;100.00;100451.28;5017686;28;20040;-71
2021/07/17 03:10:29;;;;;;;10.75;5.70;;;;;;;24.36;100.00;100449.97;5017205;28;20097;-71
2021/07/17 03:13:14;;;;;;;10.57;6.00;;;;;;;23.56;100.00;100456.16;5017712;28;20053;-71
2021/07/17 03:16:00;;;;;;;16.13;6.07;;;;;;;23.70;100.00;100450.63;5017776;28;20034;-71
2021/07/17 03:18:46;;;;;;;11.55;5.68;;;;;;;23.56;100.00;100457.97;5017922;28;20085;-71
2021/07/17 03:21:32;;;;;;;13.23;5.80;;;;;;;23.87;100.00;100460.06;5017108;28;20466;-71
2021/07/17 03:24:18;;;;;;;13.43;5.82;;;;;;;23.56;100.00;100452.63;5005177;28;20124;-71
2021/07/17 03:27:03;;;;;;;11.23;5.57;;;;;;;23.34;100.00;100453.38;5017287;28;20057;-71
2021/07/17 03:29:49;;;;;;;12.68;5.97;;;;;;;22.83;100.00;100452.66;5005065;28;20033;-71
2021/07/17 03:32:35;;;;;;;10.75;6.05;;;;;;;23.10;100.00;100445.31;5017529;28;20030;-70
2021/07/17 03:35:21;;;;;;;10.48;5.60;;;;;;;23.08;100.00;100454.41;5017204;28;20351;-70
2021/07/17 03:38:07;;;;;;;13.85;6.38;;;;;;;23.05;100.00;100452.81;5017366;28;20469;-70
2021/07/17 03:40:52;;;;;;;12.52;5.53;;;;;;;22.80;100.00;100452.03;5016673;28;20041;-71
2021/07/17 03:43:38;;;;;;;16.15;6.45;;;;;;;23.15;100.00;100453.84;5017411;28;20026;-71
2021/07/17 03:46:24;;;;;;;14.63;5.93;;;;;;;22.92;100.00;100454.69;5017206;28;20095;-71
2021/07/17 03:49:10;;;;;;;11.25;6.30;;;;;;;23.34;100.00;100448.00;5016962;28;20462;-71
2021/07/17 03:51:56;;;;;;;15.40;6.25;;;;;;;23.19;100.00;100449.13;5017019;28;20034;-70
2021/07/17 03:54:41;;;;;;;16.55;6.50;;;;;;;23.30;100.00;100455.44;5017577;28;20442;-70
2021/07/17 03:57:27;;;;;;;15.63;6.18;;;;;;;23.59;100.00;100452.41;5016297;28;20112;-70
2021/07/17 04:00:14;;;;;;;11.02;6.57;;;;;;;23.46;100.00;100452.44;5017259;28;20026;-70
2021/07/17 04:03:03;;;;;;;17.60;7.07;;;;;;;23.49;100.00;100465.59;5003180;28;20030;-70
2021/07/17 04:05:49;;;;;;;19.55;8.00;;;;;;;23.26;100.00;100467.31;5017615;28;20034;-71
2021/07/17 04:08:34;;;;;;;16.80;7.80;;;;;;;23.48;100.00;100467.41;5004317;28;20107;-71
2021/07/17 04:11:20;;;;;;;11.90;7.55;;;;;;;23.92;100.00;100466.78;5016047;28;20030;-70
2021/07/17 04:14:06;;;;;;;13.57;7.45;;;;;;;23.85;100.00;100470.88;5004365;28;20021;-70
2021/07/17 04:16:51;;;;;;;20.95;8.00;;;;;;;23.71;100.00;100470.22;5016537;28;20022;-70
2021/07/17 04:19:37;;;;;;;16.17;7.65;;;;;;;23.82;100.00;100463.06;5017014;28;20124;-70
2021/07/17 04:22:23;;;;;;;13.73;7.97;;;;;;;23.84;100.00;100461.13;5017209;28;20040;-70
2021/07/17 04:25:11;;;;;;;15.63;7.85;;;;;;;23.82;100.00;100456.88;5016667;28;20128;-71
2021/07/17 04:27:57;;;;;;;21.17;8.40;;;;;;;24.20;100.00;100458.34;5015779;28;20040;-70
2021/07/17 04:30:43;;;;;;;18.80;8.05;;;;;;;24.62;100.00;100451.47;5016268;28;20446;-71
2021/07/17 04:33:29;;;;;;;18.30;7.10;;;;;;;24.38;100.00;100459.59;5016374;28;20080;-70
2021/07/17 04:36:14;;;;;;;23.13;7.85;;;;;;;24.85;100.00;100461.22;5016643;28;20038;-71
2021/07/17 04:39:00;;;;;;;19.70;7.10;;;;;;;24.99;100.00;100453.75;5016763;28;20100;-71
2021/07/17 04:41:46;;;;;;;18.30;7.40;;;;;;;25.08;100.00;100460.22;5016184;28;20096;-71
2021/07/17 04:44:32;;;;;;;13.32;6.78;;;;;;;25.18;100.00;100448.63;5016147;28;20038;-70
2021/07/17 04:47:18;;;;;;;15.02;7.75;;;;;;;24.95;100.00;100441.56;5015888;28;20057;-71
2021/07/17 04:50:04;;;;;;;18.42;7.57;;;;;;;24.76;100.00;100453.91;5016089;28;20132;-71
2021/07/17 04:52:50;;;;;;;13.13;7.50;;;;;;;24.74;100.00;100456.72;5015790;28;20095;-71
2021/07/17 04:55:36;;;;;;;13.68;7.38;;;;;;;24.74;100.00;100453.16;5016004;28;20087;-71
2021/07/17 04:58:22;;;;;;;16.00;7.55;;;;;;;25.06;100.00;100457.66;5016602;28;20109;-70
2021/07/17 05:01:07;;;;;;;15.90;8.00;;;;;;;25.09;100.00;100456.56;5015630;28;20038;-71
2021/07/17 05:03:54;;;;;;;20.63;8.63;;;;;;;24.37;100.00;100455.22;5015477;28;20053;-71
2021/07/17 05:06:40;;;;;;;14.73;8.15;;;;;;;24.88;100.00;100452.94;5015209;28;20030;-70
2021/07/17 05:09:26;;;;;;;21.40;8.07;;;;;;;24.45;100.00;100452.78;5014279;28;20450;-71
2021/07/17 05:12:11;;;;;;;13.73;8.52;;;;;;;24.40;100.00;100452.28;5015076;28;20418;-70
2021/07/17 05:14:57;;;;;;;20.40;8.45;;;;;;;24.81;100.00;100457.06;5015226;28;20026;-71
2021/07/17 05:17:43;;;;;;;17.85;7.80;;;;;;;24.97;100.00;100452.19;5016189;28;20494;-70
2021/07/17 05:20:29;;;;;;;18.80;8.68;;;;;;;25.14;100.00;100448.97;5016354;28;20049;-70
2021/07/17 05:23:18;;;;;;;14.63;8.30;;;;;;;24.65;100.00;100454.78;5002730;28;20184;-71
2021/07/17 05:26:04;;;;;;;13.63;8.00;;;;;;;25.22;100.00;100454.56;5015016;28;20075;-71
2021/07/17 05:28:49;;;;;;;14.43;7.82;;;;;;;25.63;100.00;100455.56;5015938;28;20033;-71
2021/07/17 05:31:36;;;;;;;17.67;8.35;;;;;;;25.14;100.00;100448.97;5016353;28;20022;-71
2021/07/17 05:34:21;;;;;;;17.98;8.10;;;;;;;25.69;100.00;100452.38;5015592;28;20355;-71
2021/07/17 05:37:08;;;;;;;17.33;7.97;;;;;;;25.81;100.00;100455.84;5015305;28;20030;-71
2021/07/17 05:39:54;;;;;;;13.93;8.32;;;;;;;25.86;100.00;100450.94;5015879;28;20454;-71
2021/07/17 05:42:39;;;;;;;18.25;8.35;;;;;;;26.02;100.00;100456.75;5002988;28;20061;-71
2021/07/17 05:45:25;;;;;;;16.27;7.85;;;;;;;25.94;100.00;100459.22;5015154;28;20026;-71
2021/07/17 05:48:11;;;;;;;17.00;7.40;;;;;;;26.24;100.00;100451.25;5002524;28;20025;-71
2021/07/17 05:50:57;;;;;;;15.63;7.65;;;;;;;26.69;100.00;100460.72;5014347;28;20040;-71
2021/07/17 05:53:42;;;;;;;18.38;8.10;;;;;;;26.67;100.00;100460.84;5015328;28;20018;-71
2021/07/17 05:56:28;;;;;;;17.40;7.72;;;;;;;27.06;100.00;100465.38;5014486;28;20026;-70
2021/07/17 05:59:14;;;;;;;19.73;7.88;;;;;;;26.86;100.00;100470.81;5016170;28;20030;-70
2021/07/17 06:02:00;;;;;;;18.75;8.25;;;;;;;26.94;100.00;100471.88;5015488;28;20091;-70
2021/07/17 06:04:46;;;;;;;15.98;8.02;;;;;;;27.20;100.00;100469.53;5014694;28;20121;-71
2021/07/17 06:07:31;;;;;;;17.05;8.52;;;;;;;27.35;100.00;100462.78;5015437;28;20026;-70
2021/07/17 06:10:18;;;;;;;16.25;9.68;;;;;;;26.91;100.00;100464.06;5014858;28;20034;-70
2021/07/17 06:13:05;;;;;;;21.48;9.45;;;;;;;27.01;100.00;100458.72;5002509;28;20109;-71
2021/07/17 06:15:52;;;;;;;19.98;9.07;;;;;;;26.93;100.00;100469.31;5015445;28;20026;-71
2021/07/17 06:18:38;;;;;;;16.17;8.05;;;;;;;26.90;100.00;100459.69;5002424;28;20065;-71
2021/07/17 06:21:24;;;;;;;20.13;8.07;;;;;;;27.21;100.00;100468.56;5018875;28;20335;-71
2021/07/17 06:24:13;;;;;;;18.73;7.90;;;;;;;27.69;100.00;100464.09;5005477;28;20104;-70
2021/07/17 06:26:59;;;;;;;16.98;8.40;;;;;;;27.55;100.00;100471.75;5004008;28;20022;-71
2021/07/17 06:29:45;;;;;;;19.30;7.32;;;;;;;27.68;100.00;100458.84;5018191;28;20030;-71
2021/07/17 06:32:30;;;;;;;20.10;7.85;;;;;;;27.80;100.00;100465.81;5019128;28;20018;-71
2021/07/17 06:35:16;;;;;;;15.50;8.15;;;;;;;27.76;100.00;100453.63;5005704;28;20028;-71
2021/07/17 06:38:03;;;;;;;21.38;9.23;;;;;;;28.03;100.00;100465.38;5018645;28;20089;-71
2021/07/17 06:40:48;;;;;;;19.05;8.57;;;;;;;28.15;100.00;100456.16;5019079;28;20030;-71
2021/07/17 06:43:35;;;;;;;26.42;9.18;;;;;;;28.53;100.00;100458.78;5006294;28;20034;-70
2021/07/17 06:46:21;;;;;;;17.63;9.02;;;;;;;27.90;100.00;100455.91;5018179;28;20074;-70
2021/07/17 06:49:07;;;;;;;22.98;9.48;;;;;;;27.96;100.00;100460.72;5018062;28;20068;-71
2021/07/17 06:51:53;;;;;;;22.73;9.30;;;;;;;28.10;100.00;100460.28;5017800;28;20028;-71
2021/07/17 06:54:38;;;;;;;18.38;9.38;;;;;;;27.88;100.00;100458.72;5018208;28;20068;-71
2021/07/17 06:57:24;;;;;;;15.02;8.27;;;;;;;28.28;100.00;100455.84;5018948;28;20108;-71
2021/07/17 07:00:14;;;;;;;19.48;8.93;;;;;;;28.22;100.00;100465.38;5029873;28;20057;-70
2021/07/17 07:03:04;;;;;;;27.35;8.57;;;;;;;28.16;100.00;100465.94;5017440;28;20824;-71
2021/07/17 07:05:49;;;;;;;21.75;8.80;;;;;;;28.31;100.00;100455.53;5018434;28;20053;-71
2021/07/17 07:08:36;;;;;;;17.60;8.13;;;;;;;28.41;100.00;100468.03;5018047;28;20366;-71
2021/07/17 07:11:22;;;;;;;16.80;8.23;;;;;;;28.48;100.00;100452.16;5018158;28;20018;-71
2021/07/17 07:14:08;;;;;;;18.65;7.63;;;;;;;28.39;100.00;100453.81;5019488;28;20030;-71
2021/07/17 07:16:55;;;;;;;20.38;7.68;;;;;;;28.60;100.00;100453.66;5018344;28;20044;-71
2021/07/17 07:19:40;;;;;;;16.52;7.70;;;;;;;28.49;100.00;100449.28;5018649;28;20081;-71
2021/07/17 07:22:27;;;;;;;11.40;7.55;;;;;;;28.71;100.00;100454.31;5017897;28;20026;-71
2021/07/17 07:25:12;;;;;;;15.65;7.05;;;;;;;28.81;100.00;100455.13;5005403;28;20029;-71
2021/07/17 07:27:58;;;;;;;12.45;6.95;;;;;;;28.92;100.00;100449.53;5018849;28;20095;-69
2021/07/17 07:30:44;;;;;;;16.65;7.18;;;;;;;29.38;100.00;100454.84;5016921;28;20034;-71
2021/07/17 07:33:30;;;;;;;15.95;7.50;;;;;;;28.75;100.00;100447.63;5018386;28;20022;-70
2021/07/17 07:36:16;;;;;;;16.27;7.28;;;;;;;28.81;100.00;100441.63;5017748;28;20030;-70
2021/07/17 07:39:02;;;;;;;12.18;6.80;;;;;;;29.36;100.00;100446.03;5004988;28;20085;-70
2021/07/17 07:41:48;;;;;;;10.23;6.55;;;;;;;29.64;100.00;100445.00;5017169;28;20030;-70
2021/07/17 07:44:34;;;;;;;13.40;6.60;;;;;;;30.13;100.00;100436.28;5017779;28;20026;-70
2021/07/17 07:47:20;;;;;;;16.00;6.55;;;;;;;30.39;98.53;100439.91;5017442;28;20053;-70
2021/07/17 07:50:07;;;;;;;14.25;6.38;;;;;;;30.82;97.49;100439.81;5018077;28;20030;-70
2021/07/17 07:52:56;;;;;;;13.32;6.85;;;;;;;31.21;95.34;100438.25;5017604;28;20022;-71
2021/07/17 07:55:42;;;;;;;10.80;6.15;;;;;;;30.84;99.61;100428.81;5018142;28;20034;-71
2021/07/17 07:58:29;;;;;;;14.63;6.65;;;;;;;31.26;97.61;100430.53;5004685;28;20029;-71
2021/07/17 08:01:14;;;;;;;12.98;6.22;;;;;;;31.55;96.33;100429.22;5017025;28;20049;-71
2021/07/17 08:04:00;;;;;;;16.10;6.60;;;;;;;31.52;96.46;100424.13;5017322;28;20025;-70
2021/07/17 08:06:46;;;;;;;17.42;6.43;;;;;;;31.61;97.70;100420.44;5016507;28;20113;-70
2021/07/17 08:09:32;;;;;;;15.75;6.45;;;;;;;31.86;95.35;100424.88;5016419;28;20089;-70
2021/07/17 08:12:18;;;;;;;11.80;6.25;;;;;;;31.93;94.31;100420.47;5016742;28;20353;-70
2021/07/17 08:15:07;;;;;;;9.82;6.35;;;;;;;32.40;90.66;100425.00;5017394;28;20658;-70
2021/07/17 08:17:52;;;;;;;11.57;6.30;;;;;;;32.35;85.77;100429.25;5017843;28;20021;-69
2021/07/17 08:20:40;;;;;;;11.65;6.10;;;;;;;32.94;83.05;100434.19;5002700;28;20073;-70
2021/07/17 08:23:26;;;;;;;14.38;6.10;;;;;;;32.73;75.58;100434.75;5016441;28;20037;-70
2021/07/17 08:26:13;;;;;;;15.20;6.68;;;;;;;32.72;77.97;100430.34;5016835;28;20358;-70
2021/07/17 08:28:58;;;;;;;19.33;6.15;;;;;;;33.02;72.63;100432.28;5016767;28;20091;-69
2021/07/17 08:31:44;;;;;;;11.93;5.68;;;;;;;32.66;74.18;100424.78;5016486;28;20018;-70
2021/07/17 08:34:30;;;;;;;14.00;5.53;;;;;;;33.16;75.48;100423.38;5016284;28;20030;-70
2021/07/17 08:37:16;;;;;;;14.98;5.75;;;;;;;32.95;74.01;100419.59;5016969;28;20107;-69
2021/07/17 08:40:04;;;;;;;14.88;5.45;;;;;;;32.53;67.31;100419.88;5016269;28;20018;-70
2021/07/17 08:42:53;;;;;;;13.68;5.85;;;;;;;32.69;69.71;100417.13;5017162;28;20032;-70
2021/07/17 08:45:39;;;;;;;15.02;5.57;;;;;;;33.31;68.33;100415.31;5003134;28;20461;-70
2021/07/17 08:48:25;;;;;;;12.80;5.93;;;;;;;32.77;67.08;100410.81;5016321;28;20026;-70
2021/07/17 08:51:11;;;;;;;14.95;6.10;;;;;;;32.93;71.07;100414.34;5003928;28;20464;-70
2021/07/17 08:53:58;;;;;;;20.27;6.30;;;;;;;32.93;67.23;100416.19;5016799;28;20034;-70
2021/07/17 08:56:44;;;;;;;15.27;5.72;;;;;;;33.22;63.41;100411.78;5015839;28;20038;-70
2021/07/17 08:59:32;;;;;;;14.23;5.90;;;;;;;32.99;66.87;100407.34;5016639;28;20105;-70
2021/07/17 09:02:18;;;;;;;14.43;5.93;;;;;;;33.45;70.21;100407.28;5016031;28;20038;-70
2021/07/17 09:05:09;;;;;;;13.85;6.65;;;;;;;33.62;66.38;100400.69;5016431;28;20030;-70
2021/07/17 09:07:56;;;;;;;16.80;6.00;;;;;;;33.64;66.89;100401.38;5015485;28;20404;-70
2021/07/17 09:10:50;;;;;;;14.38;5.38;;;;;;;34.33;66.47;100397.53;5016219;28;20296;-70
2021/07/17 09:13:36;;;;;;;11.20;6.07;;;;;;;34.49;64.78;100392.78;5016570;28;20091;-70
2021/07/17 09:16:32;;;;;;;16.38;6.18;;;;;;;34.58;63.80;100386.19;5015012;28;20095;-70
2021/07/17 09:19:18;;;;;;;15.10;5.60;;;;;;;35.02;62.84;100388.88;5015076;28;20064;-71
2021/07/17 09:22:04;;;;;;;11.95;5.72;;;;;;;33.76;67.99;100388.19;5015747;28;20121;-70
2021/07/17 09:25:14;;;;;;;15.90;5.90;;;;;;;34.59;67.87;100387.03;5015079;28;20041;-70
2021/07/17 09:28:17;;;;;;;11.93;5.80;;;;;;;34.56;65.56;100376.53;5002484;28;20097;-70
2021/07/17 09:31:04;;;;;;;11.10;5.43;;;;;;;34.66;65.47;100386.09;5015181;28;20525;-70
2021/07/17 09:33:50;;;;;;;13.27;5.50;;;;;;;34.70;65.52;100381.97;5014519;28;20028;-71
2021/07/17 09:37:11;;;;;;;13.18;5.47;;;;;;;35.02;66.04;100372.53;5015409;28;20116;-70
2021/07/17 09:39:57;;;;;;;12.63;5.50;;;;;;;34.61;67.64;100379.53;5015208;28;20095;-71
2021/07/17 09:42:44;;;;;;;13.00;5.40;;;;;;;34.63;67.48;100383.75;5015557;28;20045;-70
2021/07/17 09:45:40;;;;;;;11.82;5.60;;;;;;;35.00;65.40;100377.34;5014704;28;20465;-71
2021/07/17 09:48:31;;;;;;;13.70;5.40;;;;;;;34.84;65.80;100374.84;5015260;28;20046;-71
2021/07/17 09:51:19;;;;;;;18.48;5.55;;;;;;;34.74;64.08;100369.66;5015969;28;20033;-71
2021/07/17 09:54:06;;;;;;;13.38;5.43;;;;;;;34.94;62.83;100378.09;5001408;28;20434;-71
2021/07/17 09:56:59;;;;;;;9.80;5.20;;;;;;;35.18;65.11;100370.44;5015457;28;20061;-71
2021/07/17 10:00:02;;;;;;;8.68;4.90;;;;;;;34.98;64.42;100366.63;5015367;28;20026;-70
2021/07/17 10:02:48;;;;;;;13.30;5.25;;;;;;;34.65;66.85;100367.22;5002147;28;20038;-71
2021/07/17 10:05:38;;;;;;;13.98;4.95;;;;;;;34.42;66.88;100366.47;5014809;28;20041;-71
2021/07/17 10:08:33;;;;;;;12.38;5.85;;;;;;;34.87;66.73;100363.53;5015019;28;20091;-72
2021/07/17 10:11:27;;;;;;;12.52;5.45;;;;;;;34.21;69.01;100366.34;5015559;28;20017;-70
2021/07/17 10:14:20;;;;;;;8.98;5.03;;;;;;;34.23;71.04;100364.31;5014540;28;20029;-71
2021/07/17 10:17:15;;;;;;;13.40;5.28;;;;;;;34.11;73.13;100354.91;5014498;28;20030;-71
2021/07/17 10:20:06;;;;;;;10.60;5.45;;;;;;;34.67;70.45;100348.81;5002151;28;20060;-70
2021/07/17 10:22:52;;;;;;;11.63;5.32;;;;;;;34.94;67.89;100348.13;5014178;28;20343;-71
2021/07/17 10:25:38;;;;;;;17.98;5.20;;;;;;;34.91;64.96;100341.19;5014514;28;20092;-71
2021/07/17 10:28:24;;;;;;;12.82;5.40;;;;;;;35.07;66.85;100342.84;5014011;28;20038;-71
2021/07/17 10:31:09;;;;;;;11.80;5.75;;;;;;;34.76;68.05;100334.91;5014629;28;20045;-71
2021/07/17 10:33:55;;;;;;;9.68;5.30;;;;;;;34.91;66.83;100340.34;5002404;28;20018;-72
2021/07/17 10:37:05;;;;;;;19.25;5.75;;;;;;;34.69;67.41;100333.16;5014798;28;20113;-71
2021/07/17 10:40:02;;;;;;;11.20;5.97;;;;;;;33.92;66.25;100339.13;5000634;28;20109;-72
2021/07/17 10:42:52;;;;;;;15.60;5.80;;;;;;;34.39;65.67;100332.31;5015456;28;20080;-71
2021/07/17 10:45:40;;;;;;;18.85;5.90;;;;;;;34.39;70.48;100321.44;5013672;28;20121;-71
2021/07/17 10:48:33;;;;;;;17.00;6.15;;;;;;;34.38;65.91;100319.75;5014615;28;20068;-71
2021/07/17 10:51:22;;;;;;;15.00;5.95;;;;;;;34.46;65.31;100324.25;5014542;28;20403;-71
2021/07/17 10:54:11;;;;;;;11.23;5.82;;;;;;;34.76;62.39;100315.03;5014892;28;20018;-70
2021/07/17 10:56:57;;;;;;;17.15;6.00;;;;;;;35.24;63.73;100317.06;5014856;28;20116;-71
2021/07/17 10:59:44;;;;;;;8.05;5.25;;;;;;;35.29;63.13;100313.75;5014572;28;20032;-71
2021/07/17 11:02:30;;;;;;;17.13;5.97;;;;;;;35.08;63.30;100320.84;5014667;28;20033;-71
2021/07/17 11:05:34;;;;;;;14.05;5.80;;;;;;;34.35;61.37;100314.69;5014143;28;20033;-71
2021/07/17 11:08:37;;;;;;;14.57;5.43;;;;;;;35.46;62.32;100307.00;5017736;28;20030;-71
2021/07/17 11:11:36;;;;;;;14.90;5.90;;;;;;;34.91;62.73;100310.38;5005334;28;20108;-70
2021/07/17 11:14:24;;;;;;;13.30;5.88;;;;;;;35.45;60.75;100308.03;5017910;28;20026;-71
2021/07/17 11:17:10;;;;;;;9.15;5.20;;;;;;;35.29;56.59;100300.13;5018200;28;20041;-71
2021/07/17 11:20:18;;;;;;;10.23;5.30;;;;;;;35.33;55.28;100312.31;5003722;28;20093;-71
2021/07/17 11:23:16;;;;;;;18.40;5.65;;;;;;;35.87;51.91;100303.38;5016819;28;20026;-71
2021/07/17 11:26:10;;;;;;;18.30;5.13;;;;;;;35.38;51.88;100310.72;5018341;28;20029;-71
2021/07/17 11:29:06;;;;;;;19.55;5.25;;;;;;;35.41;52.16;100299.44;5016976;28;20044;-71
2021/07/17 11:31:53;;;;;;;12.88;5.35;;;;;;;35.16;53.55;100300.84;5018731;28;20341;-71
2021/07/17 11:34:53;;;;;;;26.90;6.20;;;;;;;35.67;52.09;100307.00;5017989;28;20036;-71
2021/07/17 11:37:39;;;;;;;20.58;5.40;;;;;;;35.68;50.66;100292.31;5017196;28;20033;-72
2021/07/17 11:40:25;;;;;;;16.80;5.68;;;;;;;35.64;51.10;100286.44;5017433;28;20064;-72
2021/07/17 11:43:11;;;;;;;12.38;5.28;;;;;;;36.26;51.19;100286.44;5017438;28;20026;-72
2021/07/17 11:45:57;;;;;;;17.23;5.85;;;;;;;36.03;51.09;100294.91;5017988;28;20032;-72
2021/07/17 11:49:07;;;;;;;10.82;5.00;;;;;;;35.98;49.92;100283.75;5016926;28;20029;-71
2021/07/17 11:51:58;;;;;;;21.85;5.05;;;;;;;35.75;51.06;100274.97;5016682;28;20032;-71
2021/07/17 11:54:47;;;;;;;17.65;5.50;;;;;;;37.08;49.11;100279.88;5004120;28;20033;-71
2021/07/17 11:57:34;;;;;;;11.00;5.00;;;;;;;36.80;47.93;100274.53;5003913;28;20041;-72
2021/07/17 12:00:21;;;;;;;22.27;5.93;;;;;;;36.24;48.99;100288.56;5016779;28;20026;-72
2021/07/17 12:03:07;;;;;;;15.52;5.05;;;;;;;35.33;50.79;100272.31;5016930;28;20026;-72
2021/07/17 12:05:53;;;;;;;10.57;4.88;;;;;;;35.93;51.31;100269.88;5017267;28;20041;-72
2021/07/17 12:08:38;;;;;;;15.80;5.32;;;;;;;35.94;51.82;100270.69;5017520;28;20022;-72
2021/07/17 12:11:24;;;;;;;19.92;4.97;;;;;;;36.32;52.30;100270.09;5016869;28;20025;-72
2021/07/17 12:14:19;;;;;;;8.70;4.53;;;;;;;36.25;51.15;100277.44;5017319;28;20390;-72
2021/07/17 12:17:06;;;;;;;19.00;4.90;;;;;;;36.32;52.21;100272.00;5002941;28;20386;-72
2021/07/17 12:20:07;;;;;;;12.75;4.75;;;;;;;36.53;50.71;100280.06;5016190;28;20080;-72
2021/07/17 12:22:54;;;;;;;14.98;4.90;;;;;;;36.53;48.96;100275.47;5004042;28;20080;-72
2021/07/17 12:25:52;;;;;;;15.98;4.88;;;;;;;35.87;49.78;100272.56;5016054;28;20053;-72
2021/07/17 12:28:40;;;;;;;13.07;5.30;;;;;;;35.20;51.49;100274.88;5004023;28;20084;-72
2021/07/17 12:31:26;;;;;;;12.20;4.78;;;;;;;36.27;50.68;100267.16;5017035;28;20046;-72
2021/07/17 12:34:12;;;;;;;19.92;5.18;;;;;;;36.16;50.99;100273.13;5015864;28;20025;-72
2021/07/17 12:36:58;;;;;;;11.57;4.85;;;;;;;36.04;50.88;100263.00;5017096;28;20030;-70
2021/07/17 12:39:43;;;;;;;10.43;4.82;;;;;;;35.84;51.71;100252.00;5003421;28;20037;-72
2021/07/17 12:42:31;;;;;;;11.30;5.05;;;;;;;36.08;50.08;100256.13;5016062;28;20446;-72
2021/07/17 12:45:21;;;;;;;11.55;5.20;;;;;;;36.32;51.54;100251.00;5016852;28;20161;-72